Time;durP1;ratioP1;P1;durP2;ratioP2;P2;SDS_P1;SDS_P2;PMS_P1;PMS_P2;Temp;Humidity;BMP_temperature;BMP_pressure;BME280_temperature;BME280_humidity;BME280_pressure;Samples;Min_cycle;Max_cycle;Signal;HPM_P1;HPM_P2
2023/10/28 00:02:14;;;;;;;3.08;2.78;;;;;;;;;;5029431;28;20041;-83
2023/10/28 00:04:40;;;;;;;4.78;3.10;;;;;;;;;;5039441;28;20032;-82
2023/10/28 00:07:06;;;;;;;3.53;2.97;;;;;;;;;;5048604;28;20142;-83
2023/10/28 00:09:31;;;;;;;3.38;3.08;;;;;;;;;;5044275;28;20017;-83
2023/10/28 00:11:57;;;;;;;4.85;3.30;;;;;;;;;;5043444;28;20045;-83
2023/10/28 00:14:23;;;;;;;3.53;3.22;;;;;;;;;;5046361;28;20504;-85
2023/10/28 00:16:49;;;;;;;4.00;3.10;;;;;;;;;;5047532;28;20104;-84
2023/10/28 00:19:16;;;;;;;4.80;3.63;;;;;;;;;;5047823;28;20024;-85
2023/10/28 00:21:41;;;;;;;4.22;2.83;;;;;;;;;;5043955;28;20128;-84
2023/10/28 00:24:07;;;;;;;3.08;2.80;;;;;;;;;;5029154;28;20017;-85
2023/10/28 00:26:34;;;;;;;3.33;3.03;;;;;;;;;;5043555;28;20044;-84
2023/10/28 00:28:59;;;;;;;4.28;3.15;;;;;;;;;;5047167;28;20021;-82
2023/10/28 00:31:27;;;;;;;4.00;3.53;;;;;;;;;;5044474;28;20498;-83
2023/10/28 00:33:52;;;;;;;4.25;3.53;;;;;;;;;;5011691;28;20504;-84
2023/10/28 00:36:18;;;;;;;3.95;3.65;;;;;;;;;;5038929;28;20051;-85
2023/10/28 00:38:43;;;;;;;4.50;3.63;;;;;;;;;;5048431;28;20025;-83
2023/10/28 00:41:09;;;;;;;4.30;3.90;;;;;;;;;;5049256;28;20029;-83
2023/10/28 00:43:34;;;;;;;3.67;3.47;;;;;;;;;;5048932;28;20114;-84
2023/10/28 00:46:02;;;;;;;4.15;3.75;;;;;;;;;;5047547;28;20025;-83
2023/10/28 00:48:30;;;;;;;3.92;3.58;;;;;;;;;;5048290;28;20059;-82
2023/10/28 00:50:57;;;;;;;4.20;3.85;;;;;;;;;;5048807;28;20024;-83
2023/10/28 00:53:24;;;;;;;4.13;3.80;;;;;;;;;;5048402;28;20017;-84
2023/10/28 00:55:51;;;;;;;6.07;4.13;;;;;;;;;;5048614;28;20032;-84
2023/10/28 00:58:20;;;;;;;6.75;4.20;;;;;;;;;;5047031;28;20390;-83
2023/10/28 01:00:45;;;;;;;3.72;3.38;;;;;;;;;;5031299;28;20731;-84
2023/10/28 01:03:10;;;;;;;4.30;3.13;;;;;;;;;;5043139;28;20040;-84
2023/10/28 01:05:36;;;;;;;2.53;2.00;;;;;;;;;;5026725;28;20049;-85
2023/10/28 01:08:01;;;;;;;1.63;1.52;;;;;;;;;;5039543;28;20032;-83
2023/10/28 01:10:26;;;;;;;2.13;1.52;;;;;;;;;;5047261;28;20021;-83
2023/10/28 01:12:52;;;;;;;1.55;1.45;;;;;;;;;;5048885;28;20067;-84
2023/10/28 01:15:17;;;;;;;1.50;1.40;;;;;;;;;;5033204;28;20491;-85
2023/10/28 01:17:43;;;;;;;3.00;1.50;;;;;;;;;;5033793;28;20029;-83
2023/10/28 01:20:10;;;;;;;1.20;1.17;;;;;;;;;;5027054;28;20025;-84
2023/10/28 01:22:35;;;;;;;1.50;1.38;;;;;;;;;;5038032;28;20021;-85
2023/10/28 01:25:01;;;;;;;2.08;1.40;;;;;;;;;;5051544;28;20090;-83
2023/10/28 01:27:27;;;;;;;2.20;1.58;;;;;;;;;;5046989;28;20082;-81
2023/10/28 01:29:52;;;;;;;2.80;1.60;;;;;;;;;;5048686;28;20036;-84
2023/10/28 01:32:18;;;;;;;2.45;1.45;;;;;;;;;;5050243;28;20028;-83
2023/10/28 01:34:46;;;;;;;2.70;1.42;;;;;;;;;;5047081;28;20021;-84
2023/10/28 01:37:12;;;;;;;3.22;1.80;;;;;;;;;;5014990;28;20108;-84
2023/10/28 01:39:38;;;;;;;3.03;1.40;;;;;;;;;;5033836;28;20167;-83
2023/10/28 01:42:04;;;;;;;1.95;1.42;;;;;;;;;;5050747;28;20199;-83
2023/10/28 01:44:34;;;;;;;1.60;1.35;;;;;;;;;;5046645;28;20021;-83
2023/10/28 01:47:00;;;;;;;2.05;1.38;;;;;;;;;;5031930;28;20032;-84
2023/10/28 01:49:27;;;;;;;1.70;1.40;;;;;;;;;;5036112;28;20036;-85
2023/10/28 01:51:52;;;;;;;2.90;1.38;;;;;;;;;;5047179;28;20021;-83
2023/10/28 01:54:17;;;;;;;2.35;1.50;;;;;;;;;;5033796;28;20067;-83
2023/10/28 01:56:43;;;;;;;2.75;1.40;;;;;;;;;;5050402;28;20028;-84
2023/10/28 01:59:10;;;;;;;2.05;1.60;;;;;;;;;;5034263;28;20024;-84
2023/10/28 02:01:36;;;;;;;3.55;1.58;;;;;;;;;;5051585;28;20021;-85
2023/10/28 02:04:06;;;;;;;4.25;1.88;;;;;;;;;;5050734;28;20391;-83
2023/10/28 02:06:31;;;;;;;4.38;2.00;;;;;;;;;;5047486;28;20462;-83
2023/10/28 02:08:57;;;;;;;2.28;1.52;;;;;;;;;;5035663;28;20028;-85
2023/10/28 02:11:23;;;;;;;1.42;1.33;;;;;;;;;;5034968;28;20022;-84
2023/10/28 02:13:51;;;;;;;2.05;1.48;;;;;;;;;;5037478;28;20017;-84
2023/10/28 02:16:20;;;;;;;1.63;1.52;;;;;;;;;;5060747;28;20025;-82
2023/10/28 02:18:45;;;;;;;;;;;;;;;;;;5063656;28;20066;-82
2023/10/28 02:21:10;;;;;;;3.05;1.60;;;;;;;;;;5047334;28;19913;-83
2023/10/28 02:23:36;;;;;;;2.97;1.60;;;;;;;;;;5029635;28;20319;-84
2023/10/28 02:26:01;;;;;;;2.78;1.40;;;;;;;;;;5034490;28;20029;-85
2023/10/28 02:28:27;;;;;;;2.47;1.50;;;;;;;;;;5050781;28;20013;-84
2023/10/28 02:30:52;;;;;;;2.00;1.70;;;;;;;;;;5049707;28;20021;-84
2023/10/28 02:33:17;;;;;;;2.40;1.80;;;;;;;;;;5050301;28;20394;-84
2023/10/28 02:35:44;;;;;;;5.43;1.98;;;;;;;;;;5051092;28;20773;-83
2023/10/28 02:38:10;;;;;;;2.13;1.75;;;;;;;;;;5042066;28;20036;-84
2023/10/28 02:40:36;;;;;;;1.83;1.60;;;;;;;;;;5039828;28;20107;-83
2023/10/28 02:43:01;;;;;;;4.90;1.63;;;;;;;;;;5044123;28;20139;-84
2023/10/28 02:45:27;;;;;;;1.65;1.40;;;;;;;;;;5049997;28;20083;-83
2023/10/28 02:47:52;;;;;;;2.10;1.40;;;;;;;;;;5048976;28;20074;-82
2023/10/28 02:50:19;;;;;;;3.67;1.70;;;;;;;;;;5050885;28;20040;-83
2023/10/28 02:52:44;;;;;;;1.60;1.50;;;;;;;;;;5049048;28;20021;-84
2023/10/28 02:55:10;;;;;;;3.17;1.70;;;;;;;;;;5033954;28;20097;-82
2023/10/28 02:57:36;;;;;;;2.90;1.88;;;;;;;;;;5033236;28;20047;-83
2023/10/28 03:00:06;;;;;;;2.50;1.67;;;;;;;;;;5049187;28;20021;-84
2023/10/28 03:02:32;;;;;;;2.20;1.60;;;;;;;;;;5050805;28;20036;-83
2023/10/28 03:04:57;;;;;;;2.15;1.63;;;;;;;;;;5050205;28;20069;-84
2023/10/28 03:07:23;;;;;;;1.45;1.35;;;;;;;;;;5048705;28;20102;-84
2023/10/28 03:09:49;;;;;;;3.60;1.70;;;;;;;;;;5044091;28;20033;-84
2023/10/28 03:12:15;;;;;;;2.17;1.60;;;;;;;;;;5029099;28;20067;-84
2023/10/28 03:14:41;;;;;;;2.95;1.90;;;;;;;;;;5042887;28;20021;-85
2023/10/28 03:17:06;;;;;;;1.95;1.40;;;;;;;;;;5049011;28;20095;-85
2023/10/28 03:19:32;;;;;;;3.03;1.83;;;;;;;;;;5048479;28;20025;-83
2023/10/28 03:21:57;;;;;;;2.58;2.10;;;;;;;;;;5049234;28;20021;-85
2023/10/28 03:24:23;;;;;;;1.63;1.50;;;;;;;;;;5045357;28;20021;-84
2023/10/28 03:26:48;;;;;;;2.70;1.50;;;;;;;;;;5028422;28;20368;-85
2023/10/28 03:29:15;;;;;;;2.22;1.80;;;;;;;;;;5032352;28;20024;-85
2023/10/28 03:31:40;;;;;;;2.85;1.90;;;;;;;;;;5049249;28;20017;-84
2023/10/28 03:34:06;;;;;;;4.18;2.03;;;;;;;;;;5048306;28;20036;-85
2023/10/28 03:36:31;;;;;;;5.03;2.20;;;;;;;;;;5048231;28;20028;-83
2023/10/28 03:38:57;;;;;;;3.22;2.03;;;;;;;;;;5048151;28;20021;-83
2023/10/28 03:41:23;;;;;;;5.20;2.05;;;;;;;;;;5047776;28;20025;-83
2023/10/28 03:43:48;;;;;;;6.43;2.28;;;;;;;;;;5047706;28;20044;-83
2023/10/28 03:46:25;;;;;;;3.03;1.83;;;;;;;;;;5043811;28;20026;-83
2023/10/28 03:48:50;;;;;;;3.50;1.75;;;;;;;;;;5030118;28;20024;-83
2023/10/28 03:51:15;;;;;;;3.70;1.95;;;;;;;;;;5030695;28;20078;-83
2023/10/28 03:53:41;;;;;;;3.17;1.90;;;;;;;;;;5047734;28;20473;-84
2023/10/28 03:56:07;;;;;;;4.13;1.77;;;;;;;;;;5048568;28;20367;-84
2023/10/28 03:58:32;;;;;;;2.35;1.90;;;;;;;;;;5049017;28;20104;-83
2023/10/28 04:00:59;;;;;;;2.92;1.88;;;;;;;;;;5047552;28;20029;-83
2023/10/28 04:03:24;;;;;;;3.13;2.33;;;;;;;;;;5047286;28;20620;-84
2023/10/28 04:05:50;;;;;;;3.15;1.90;;;;;;;;;;5047267;28;20088;-83
2023/10/28 04:08:15;;;;;;;2.97;1.98;;;;;;;;;;5047449;28;20036;-84
2023/10/28 04:10:41;;;;;;;2.42;2.08;;;;;;;;;;5049058;28;20515;-84
2023/10/28 04:13:06;;;;;;;4.32;2.45;;;;;;;;;;5047555;28;20484;-83
2023/10/28 04:15:32;;;;;;;4.57;2.25;;;;;;;;;;5047502;28;20128;-84
2023/10/28 04:17:57;;;;;;;2.70;2.03;;;;;;;;;;5043873;28;20025;-84
2023/10/28 04:20:23;;;;;;;3.45;2.20;;;;;;;;;;5028516;28;20033;-84
2023/10/28 04:22:48;;;;;;;3.03;2.35;;;;;;;;;;5043870;28;20088;-85
2023/10/28 04:25:14;;;;;;;4.13;2.47;;;;;;;;;;5011277;28;20033;-85
2023/10/28 04:27:40;;;;;;;5.82;2.85;;;;;;;;;;5018623;28;20471;-85
2023/10/28 04:30:05;;;;;;;2.97;2.20;;;;;;;;;;5047152;28;20104;-85
2023/10/28 04:32:31;;;;;;;4.20;1.90;;;;;;;;;;5044034;28;20024;-84
2023/10/28 04:34:57;;;;;;;4.78;2.60;;;;;;;;;;5028536;28;20768;-86
2023/10/28 04:37:22;;;;;;;4.72;2.00;;;;;;;;;;5028401;28;20025;-85
2023/10/28 04:39:48;;;;;;;3.83;2.00;;;;;;;;;;5047585;28;20044;-85
2023/10/28 04:42:14;;;;;;;4.32;1.90;;;;;;;;;;5047700;28;20108;-84
2023/10/28 04:44:40;;;;;;;3.05;1.98;;;;;;;;;;5046723;28;20116;-84
2023/10/28 04:47:05;;;;;;;3.22;1.92;;;;;;;;;;5047110;28;20075;-84
2023/10/28 04:49:31;;;;;;;2.47;1.70;;;;;;;;;;5046715;28;20033;-84
2023/10/28 04:51:56;;;;;;;3.58;2.40;;;;;;;;;;5047630;28;20024;-85
2023/10/28 04:54:22;;;;;;;7.05;3.10;;;;;;;;;;5051323;28;20057;-84
2023/10/28 04:56:48;;;;;;;6.72;3.08;;;;;;;;;;5042427;28;20092;-84
2023/10/28 04:59:14;;;;;;;6.95;2.80;;;;;;;;;;5051615;28;20028;-86
2023/10/28 05:01:39;;;;;;;8.63;3.40;;;;;;;;;;5070000;28;20089;-84
2023/10/28 05:04:05;;;;;;;6.57;3.72;;;;;;;;;;5055876;28;20025;-85
2023/10/28 05:06:30;;;;;;;7.50;3.65;;;;;;;;;;5031025;28;20052;-83
2023/10/28 05:08:55;;;;;;;5.85;3.42;;;;;;;;;;5050035;28;20017;-85
2023/10/28 05:11:21;;;;;;;7.90;3.80;;;;;;;;;;5031293;28;20025;-84
2023/10/28 05:13:46;;;;;;;7.03;4.35;;;;;;;;;;5030792;28;20375;-85
2023/10/28 05:16:11;;;;;;;7.30;5.13;;;;;;;;;;5031465;28;20116;-83
2023/10/28 05:18:37;;;;;;;7.90;5.15;;;;;;;;;;5032445;28;20029;-84
2023/10/28 05:21:04;;;;;;;9.40;5.90;;;;;;;;;;5048861;28;20033;-84
2023/10/28 05:23:29;;;;;;;8.52;7.00;;;;;;;;;;5049726;28;20549;-84
2023/10/28 05:25:54;;;;;;;8.38;6.93;;;;;;;;;;5035208;28;20068;-85
2023/10/28 05:28:20;;;;;;;7.47;6.72;;;;;;;;;;5024450;28;20034;-85
2023/10/28 05:30:45;;;;;;;8.55;7.18;;;;;;;;;;5020303;28;20164;-83
2023/10/28 05:33:11;;;;;;;7.15;6.50;;;;;;;;;;5013152;28;20447;-83
2023/10/28 05:35:36;;;;;;;8.70;5.70;;;;;;;;;;5037221;28;20048;-85
2023/10/28 05:38:02;;;;;;;6.53;5.53;;;;;;;;;;5049128;28;20128;-83
2023/10/28 05:40:27;;;;;;;7.40;5.85;;;;;;;;;;5027990;28;20658;-83
2023/10/28 05:42:54;;;;;;;7.07;5.63;;;;;;;;;;5012410;28;20044;-83
2023/10/28 05:45:20;;;;;;;6.35;5.55;;;;;;;;;;5013300;28;20483;-83
2023/10/28 05:47:46;;;;;;;6.20;5.45;;;;;;;;;;5042729;28;20033;-84
2023/10/28 05:50:12;;;;;;;6.93;5.05;;;;;;;;;;5011883;28;20034;-83
2023/10/28 05:52:39;;;;;;;10.05;5.50;;;;;;;;;;5049031;28;20070;-85
2023/10/28 05:55:12;;;;;;;13.35;7.45;;;;;;;;;;5060929;28;20029;-84
2023/10/28 05:57:37;;;;;;;19.15;9.30;;;;;;;;;;5046966;28;20022;-84
2023/10/28 06:00:02;;;;;;;17.27;8.45;;;;;;;;;;5040848;28;20035;-84
2023/10/28 06:02:28;;;;;;;15.85;7.80;;;;;;;;;;5068075;28;20025;-84
2023/10/28 06:04:53;;;;;;;11.93;7.80;;;;;;;;;;5059213;28;20028;-84
2023/10/28 06:07:18;;;;;;;13.48;7.47;;;;;;;;;;5057072;28;20143;-86
2023/10/28 06:09:44;;;;;;;9.05;6.45;;;;;;;;;;5054451;28;20024;-84
2023/10/28 06:12:09;;;;;;;9.35;6.25;;;;;;;;;;5052844;28;20028;-84
2023/10/28 06:14:34;;;;;;;7.25;5.68;;;;;;;;;;5047096;28;20662;-84
2023/10/28 06:17:00;;;;;;;10.82;6.55;;;;;;;;;;5048155;28;20021;-85
2023/10/28 06:19:25;;;;;;;7.22;5.80;;;;;;;;;;5030844;28;20025;-86
2023/10/28 06:21:51;;;;;;;9.02;5.32;;;;;;;;;;5051095;28;20022;-83
2023/10/28 06:24:18;;;;;;;18.73;9.85;;;;;;;;;;5062736;28;20075;-85
2023/10/28 06:26:45;;;;;;;11.73;7.85;;;;;;;;;;5049227;28;20036;-85
2023/10/28 06:29:11;;;;;;;15.48;11.32;;;;;;;;;;5044140;28;20040;-84
2023/10/28 06:31:38;;;;;;;56.78;36.45;;;;;;;;;;5038332;28;20017;-86
2023/10/28 06:34:05;;;;;;;25.73;17.83;;;;;;;;;;5045993;28;20048;-84
2023/10/28 06:36:32;;;;;;;32.22;25.23;;;;;;;;;;5048808;28;20016;-84
2023/10/28 06:38:58;;;;;;;25.95;18.27;;;;;;;;;;5047059;28;20083;-84
2023/10/28 06:41:23;;;;;;;19.73;14.30;;;;;;;;;;5047065;28;20021;-85
2023/10/28 06:43:48;;;;;;;17.25;12.88;;;;;;;;;;5048379;28;20128;-84
2023/10/28 06:46:14;;;;;;;13.48;9.82;;;;;;;;;;5047389;28;20133;-86
2023/10/28 06:48:40;;;;;;;12.45;10.02;;;;;;;;;;5049129;28;20017;-85
2023/10/28 06:51:06;;;;;;;11.07;5.25;;;;;;;;;;5047717;28;20017;-85
2023/10/28 06:53:32;;;;;;;12.57;5.78;;;;;;;;;;5050060;28;20110;-85
2023/10/28 06:55:57;;;;;;;9.48;5.05;;;;;;;;;;5044589;28;20049;-84
2023/10/28 06:58:22;;;;;;;8.52;4.70;;;;;;;;;;5045046;28;20028;-83
2023/10/28 07:00:48;;;;;;;4.78;4.28;;;;;;;;;;5060525;28;20044;-85
2023/10/28 07:03:14;;;;;;;3.95;3.40;;;;;;;;;;5056580;28;20108;-84
2023/10/28 07:05:39;;;;;;;5.70;3.17;;;;;;;;;;5044828;28;20561;-86
2023/10/28 07:08:05;;;;;;;5.00;3.20;;;;;;;;;;5030483;28;20030;-84
2023/10/28 07:10:31;;;;;;;6.32;3.80;;;;;;;;;;5047486;28;20029;-85
2023/10/28 07:12:56;;;;;;;6.00;4.47;;;;;;;;;;5038756;28;20023;-85
2023/10/28 07:15:22;;;;;;;7.55;4.90;;;;;;;;;;5055749;28;20387;-85
2023/10/28 07:17:47;;;;;;;8.48;4.55;;;;;;;;;;5066835;28;20032;-84
2023/10/28 07:20:12;;;;;;;9.02;4.65;;;;;;;;;;5042751;28;20032;-86
2023/10/28 07:22:38;;;;;;;8.80;5.90;;;;;;;;;;5064523;28;20483;-84
2023/10/28 07:25:04;;;;;;;11.05;8.10;;;;;;;;;;5048352;28;20021;-84
2023/10/28 07:27:31;;;;;;;15.18;11.02;;;;;;;;;;5049056;28;20040;-84
2023/10/28 07:29:58;;;;;;;14.43;10.35;;;;;;;;;;5044640;28;20052;-84
2023/10/28 07:32:24;;;;;;;11.63;7.30;;;;;;;;;;5051547;28;20028;-84
2023/10/28 07:34:49;;;;;;;14.93;7.53;;;;;;;;;;5046792;28;20390;-85
2023/10/28 07:37:14;;;;;;;15.75;8.55;;;;;;;;;;5059105;28;20021;-86
2023/10/28 07:47:27;;;;;;;10.35;6.00;;;;;;;;;;5012388;28;20096;-86
2023/10/28 07:49:54;;;;;;;9.37;5.80;;;;;;;;;;5031375;28;20029;-85
2023/10/28 07:52:19;;;;;;;7.15;6.18;;;;;;;;;;5029761;28;20405;-86
2023/10/28 07:54:44;;;;;;;6.53;3.65;;;;;;;;;;5028670;28;20451;-85
2023/10/28 07:57:10;;;;;;;5.40;3.28;;;;;;;;;;5030812;28;20038;-87
2023/10/28 07:59:36;;;;;;;4.95;3.15;;;;;;;;;;5032674;28;20499;-85
2023/10/28 08:02:01;;;;;;;8.82;4.22;;;;;;;;;;5033175;28;20052;-86
2023/10/28 08:04:28;;;;;;;8.32;4.13;;;;;;;;;;5028264;28;20471;-86
2023/10/28 08:06:53;;;;;;;7.68;3.47;;;;;;;;;;5011465;28;20152;-86
2023/10/28 08:09:18;;;;;;;6.45;2.97;;;;;;;;;;5027756;28;20030;-85
2023/10/28 08:11:44;;;;;;;7.55;3.42;;;;;;;;;;5028327;28;20043;-85
2023/10/28 08:14:09;;;;;;;5.18;2.80;;;;;;;;;;5016479;28;20021;-86
2023/10/28 08:16:37;;;;;;;7.60;2.95;;;;;;;;;;5030934;28;20550;-85
2023/10/28 08:19:03;;;;;;;4.93;2.10;;;;;;;;;;5026089;28;20022;-85
2023/10/28 08:21:29;;;;;;;7.38;2.20;;;;;;;;;;5011335;28;20673;-92
2023/10/28 08:23:54;;;;;;;5.70;2.47;;;;;;;;;;5028231;28;20033;-87
2023/10/28 08:26:19;;;;;;;5.93;2.60;;;;;;;;;;5029870;28;20076;-85
2023/10/28 08:28:50;;;;;;;4.60;2.20;;;;;;;;;;5012165;28;20025;-84
2023/10/28 08:31:17;;;;;;;6.13;2.20;;;;;;;;;;5011066;28;20014;-85
2023/10/28 08:33:42;;;;;;;4.72;2.05;;;;;;;;;;5027910;28;20104;-83
2023/10/28 08:36:08;;;;;;;6.50;2.10;;;;;;;;;;5025568;28;20061;-85
2023/10/28 08:38:35;;;;;;;4.50;2.03;;;;;;;;;;5025331;28;20052;-85
2023/10/28 08:41:05;;;;;;;4.95;1.92;;;;;;;;;;5003102;28;20053;-85
2023/10/28 08:43:34;;;;;;;6.28;2.15;;;;;;;;;;5013108;28;20053;-87
2023/10/28 08:46:01;;;;;;;10.23;3.38;;;;;;;;;;5014590;28;20502;-84
2023/10/28 08:48:26;;;;;;;5.72;2.10;;;;;;;;;;5009539;28;20060;-84
2023/10/28 08:50:53;;;;;;;6.13;2.00;;;;;;;;;;5008986;28;20030;-86
2023/10/28 08:53:19;;;;;;;3.55;1.92;;;;;;;;;;5008380;28;20010;-86
2023/10/28 08:55:45;;;;;;;7.57;4.10;;;;;;;;;;5004719;28;20029;-87
2023/10/28 08:58:10;;;;;;;7.97;2.72;;;;;;;;;;5015979;28;20017;-87
2023/10/28 09:00:36;;;;;;;5.47;1.98;;;;;;;;;;5024320;28;20026;-87
2023/10/28 09:03:04;;;;;;;6.10;2.22;;;;;;;;;;5024127;28;20121;-86
2023/10/28 09:05:29;;;;;;;8.98;2.13;;;;;;;;;;5008525;28;20546;-87
2023/10/28 09:07:55;;;;;;;6.35;2.55;;;;;;;;;;5024366;28;20072;-86
2023/10/28 09:10:21;;;;;;;4.75;2.05;;;;;;;;;;5024169;28;20108;-87
2023/10/28 09:12:47;;;;;;;7.75;2.20;;;;;;;;;;5009085;28;20387;-86
2023/10/28 09:15:12;;;;;;;5.45;1.75;;;;;;;;;;5008557;28;20018;-85
2023/10/28 09:17:39;;;;;;;6.43;1.85;;;;;;;;;;5026318;28;20022;-84
2023/10/28 09:20:09;;;;;;;6.38;2.00;;;;;;;;;;5011725;28;20028;-84
2023/10/28 09:22:40;;;;;;;8.50;2.65;;;;;;;;;;5007678;28;20097;-91
2023/10/28 09:25:07;;;;;;;5.68;1.98;;;;;;;;;;5018250;28;20105;-84
2023/10/28 09:27:35;;;;;;;8.23;3.05;;;;;;;;;;5008466;28;20068;-91
2023/10/28 09:30:08;;;;;;;14.43;3.17;;;;;;;;;;5031283;28;20116;-85
2023/10/28 09:32:34;;;;;;;4.45;1.73;;;;;;;;;;5010473;28;20025;-84
2023/10/28 09:35:06;;;;;;;3.95;1.58;;;;;;;;;;5012256;28;20052;-84
2023/10/28 09:37:38;;;;;;;8.68;2.80;;;;;;;;;;5022338;28;20060;-85
2023/10/28 09:40:14;;;;;;;8.70;2.45;;;;;;;;;;5006675;28;19998;-84
2023/10/28 09:42:39;;;;;;;8.50;2.60;;;;;;;;;;5024311;28;20484;-85
2023/10/28 09:45:06;;;;;;;5.10;2.22;;;;;;;;;;5014480;28;20160;-84
2023/10/28 09:47:50;;;;;;;5.82;2.55;;;;;;;;;;5016002;28;20069;-85
2023/10/28 09:50:16;;;;;;;6.82;2.25;;;;;;;;;;5031205;28;20021;-85
2023/10/28 09:52:45;;;;;;;7.85;2.55;;;;;;;;;;5018706;28;20097;-86
2023/10/28 09:55:13;;;;;;;13.77;5.28;;;;;;;;;;5037839;28;20028;-86
2023/10/28 09:57:40;;;;;;;9.95;5.40;;;;;;;;;;5030246;28;20518;-86
2023/10/28 10:00:19;;;;;;;8.02;4.15;;;;;;;;;;5034449;28;20021;-86
2023/10/28 10:02:50;;;;;;;6.53;4.35;;;;;;;;;;5050788;28;20021;-86
2023/10/28 10:05:18;;;;;;;5.82;2.70;;;;;;;;;;5029689;28;20032;-86
2023/10/28 10:07:44;;;;;;;5.63;1.88;;;;;;;;;;5014065;28;20044;-86
2023/10/28 10:10:13;;;;;;;5.40;2.40;;;;;;;;;;5031844;28;20436;-86
2023/10/28 10:12:40;;;;;;;6.05;2.35;;;;;;;;;;5033613;28;20447;-86
2023/10/28 10:15:07;;;;;;;5.15;2.00;;;;;;;;;;5022470;28;20052;-86
2023/10/28 10:17:36;;;;;;;7.03;2.25;;;;;;;;;;5038171;28;20085;-86
2023/10/28 10:20:04;;;;;;;4.63;1.98;;;;;;;;;;5028977;28;20033;-86
2023/10/28 10:22:31;;;;;;;6.43;2.33;;;;;;;;;;5024192;28;20022;-87
2023/10/28 10:24:57;;;;;;;5.97;2.30;;;;;;;;;;5025776;28;20032;-86
2023/10/28 10:27:42;;;;;;;7.78;2.30;;;;;;;;;;5042804;28;20017;-87
2023/10/28 10:30:10;;;;;;;5.53;2.00;;;;;;;;;;5025769;28;20684;-86
2023/10/28 10:32:50;;;;;;;4.82;1.90;;;;;;;;;;5030280;28;20353;-90
2023/10/28 10:35:32;;;;;;;4.05;1.90;;;;;;;;;;5037938;28;20046;-85
2023/10/28 10:38:15;;;;;;;9.13;6.22;;;;;;;;;;5015804;28;20026;-87
2023/10/28 10:40:47;;;;;;;5.78;2.00;;;;;;;;;;5036892;28;20027;-85
2023/10/28 10:43:17;;;;;;;31.77;16.08;;;;;;;;;;5034101;28;20049;-85
2023/10/28 10:45:42;;;;;;;6.28;2.83;;;;;;;;;;5027940;28;20084;-85
2023/10/28 10:48:08;;;;;;;7.32;2.83;;;;;;;;;;5033955;28;20087;-86
2023/10/28 10:50:37;;;;;;;16.55;9.85;;;;;;;;;;5032547;28;20018;-86
2023/10/28 10:53:03;;;;;;;7.93;3.17;;;;;;;;;;5014853;28;20048;-86
2023/10/28 10:55:30;;;;;;;31.13;22.70;;;;;;;;;;5033729;28;20029;-86
2023/10/28 10:57:56;;;;;;;20.48;8.40;;;;;;;;;;5021699;28;20319;-84
2023/10/28 11:00:22;;;;;;;12.13;4.90;;;;;;;;;;5017783;28;20021;-85
2023/10/28 11:02:53;;;;;;;8.02;4.20;;;;;;;;;;5022040;28;20036;-84
2023/10/28 11:05:18;;;;;;;13.35;9.07;;;;;;;;;;4999020;28;20753;-87
2023/10/28 11:07:45;;;;;;;5.45;2.67;;;;;;;;;;5038293;28;20025;-87
2023/10/28 11:10:10;;;;;;;14.23;10.35;;;;;;;;;;5015615;28;20054;-85
2023/10/28 11:12:36;;;;;;;8.07;4.05;;;;;;;;;;5014886;28;20030;-85
2023/10/28 11:15:03;;;;;;;6.90;2.70;;;;;;;;;;4998573;28;20038;-84
2023/10/28 11:17:29;;;;;;;8.10;2.20;;;;;;;;;;4995167;28;20038;-85
2023/10/28 11:19:56;;;;;;;4.40;1.95;;;;;;;;;;5013266;28;20021;-85
2023/10/28 11:22:21;;;;;;;5.18;2.13;;;;;;;;;;4996306;28;20038;-85
2023/10/28 11:24:53;;;;;;;6.55;1.90;;;;;;;;;;4996259;28;20033;-85
2023/10/28 11:27:19;;;;;;;9.95;1.88;;;;;;;;;;5013853;28;20052;-85
2023/10/28 11:29:45;;;;;;;5.55;1.90;;;;;;;;;;5014467;28;20018;-85
2023/10/28 11:32:10;;;;;;;8.73;3.00;;;;;;;;;;5013318;28;20024;-85
2023/10/28 11:34:41;;;;;;;8.77;2.40;;;;;;;;;;5011923;28;20045;-85
2023/10/28 11:37:07;;;;;;;7.88;2.05;;;;;;;;;;4996772;28;20049;-83
2023/10/28 11:39:34;;;;;;;14.80;3.50;;;;;;;;;;5004421;28;20021;-85
2023/10/28 11:42:20;;;;;;;7.05;2.25;;;;;;;;;;4997406;28;20033;-88
2023/10/28 11:44:49;;;;;;;7.03;1.70;;;;;;;;;;4988379;28;20571;-82
2023/10/28 11:47:15;;;;;;;5.55;2.10;;;;;;;;;;4996993;28;20045;-85
2023/10/28 11:49:40;;;;;;;4.40;1.90;;;;;;;;;;5027762;28;20017;-85
2023/10/28 11:52:06;;;;;;;4.50;1.90;;;;;;;;;;5032499;28;20056;-84
2023/10/28 11:54:33;;;;;;;8.70;1.80;;;;;;;;;;5015718;28;20017;-85
2023/10/28 11:56:58;;;;;;;5.85;2.10;;;;;;;;;;4997659;28;20186;-85
2023/10/28 11:59:23;;;;;;;2.80;1.50;;;;;;;;;;5029189;28;20040;-85
2023/10/28 12:01:50;;;;;;;4.97;1.88;;;;;;;;;;5011159;28;20029;-85
2023/10/28 12:04:16;;;;;;;2.55;1.50;;;;;;;;;;5028917;28;20379;-85
2023/10/28 12:06:42;;;;;;;3.72;1.60;;;;;;;;;;5006309;28;20033;-85
2023/10/28 12:09:11;;;;;;;3.88;1.98;;;;;;;;;;5031527;28;20057;-86
2023/10/28 12:11:37;;;;;;;5.03;1.88;;;;;;;;;;5031347;28;20089;-86
2023/10/28 12:14:03;;;;;;;4.97;1.70;;;;;;;;;;5018107;28;20022;-85
2023/10/28 12:16:29;;;;;;;8.15;1.90;;;;;;;;;;5030498;28;20079;-85
2023/10/28 12:18:54;;;;;;;5.95;2.10;;;;;;;;;;5030813;28;20499;-86
2023/10/28 12:21:20;;;;;;;5.57;2.20;;;;;;;;;;5030492;28;20391;-87
2023/10/28 12:23:46;;;;;;;7.53;2.28;;;;;;;;;;5032537;28;20083;-86
2023/10/28 12:26:11;;;;;;;6.95;2.40;;;;;;;;;;5033022;28;20076;-81
2023/10/28 12:28:37;;;;;;;6.07;1.88;;;;;;;;;;5033573;28;20029;-85
2023/10/28 12:31:05;;;;;;;3.88;2.35;;;;;;;;;;5020558;28;20028;-86
2023/10/28 12:33:30;;;;;;;4.82;2.17;;;;;;;;;;5033173;28;20021;-84
2023/10/28 12:35:56;;;;;;;7.97;2.10;;;;;;;;;;5028257;28;20039;-86
2023/10/28 12:38:21;;;;;;;7.65;2.20;;;;;;;;;;5029167;28;20108;-87
2023/10/28 12:40:46;;;;;;;7.20;1.77;;;;;;;;;;5029348;28;20348;-85
2023/10/28 12:43:13;;;;;;;3.47;1.35;;;;;;;;;;5036124;28;20382;-85
2023/10/28 12:45:38;;;;;;;4.13;1.98;;;;;;;;;;4991577;28;20050;-85
2023/10/28 12:48:04;;;;;;;3.88;1.90;;;;;;;;;;5043080;28;20078;-86
2023/10/28 12:50:30;;;;;;;4.50;2.05;;;;;;;;;;5030053;28;20010;-85
2023/10/28 12:52:57;;;;;;;4.38;1.60;;;;;;;;;;5024739;28;20068;-86
2023/10/28 12:55:22;;;;;;;5.45;1.70;;;;;;;;;;5026021;28;20031;-86
2023/10/28 12:57:48;;;;;;;8.88;2.90;;;;;;;;;;5012198;28;20590;-86
2023/10/28 13:00:14;;;;;;;10.48;3.40;;;;;;;;;;5030627;28;20013;-86
2023/10/28 13:02:39;;;;;;;5.70;2.08;;;;;;;;;;5029601;28;20027;-86
2023/10/28 13:05:05;;;;;;;7.53;2.30;;;;;;;;;;5030217;28;20147;-85
2023/10/28 13:07:31;;;;;;;4.93;1.80;;;;;;;;;;5029498;28;20379;-86
2023/10/28 13:09:57;;;;;;;5.82;2.00;;;;;;;;;;5027349;28;20021;-86
2023/10/28 13:12:22;;;;;;;4.20;1.90;;;;;;;;;;5027059;28;20395;-86
2023/10/28 13:14:47;;;;;;;7.75;3.80;;;;;;;;;;5027104;28;20201;-86
2023/10/28 13:17:13;;;;;;;7.43;3.28;;;;;;;;;;5028917;28;20034;-86
2023/10/28 13:19:38;;;;;;;8.93;3.03;;;;;;;;;;5014803;28;20021;-86
2023/10/28 13:22:04;;;;;;;6.25;2.92;;;;;;;;;;5021215;28;20017;-91
2023/10/28 13:24:29;;;;;;;7.10;2.38;;;;;;;;;;5033880;28;20480;-86
2023/10/28 13:26:55;;;;;;;6.97;2.35;;;;;;;;;;5030788;28;20025;-86
2023/10/28 13:29:21;;;;;;;5.93;1.52;;;;;;;;;;5030576;28;20102;-87
2023/10/28 13:31:48;;;;;;;4.40;1.95;;;;;;;;;;5030205;28;20561;-86
2023/10/28 13:34:14;;;;;;;5.13;2.28;;;;;;;;;;5030131;28;20104;-87
2023/10/28 13:36:39;;;;;;;8.25;3.00;;;;;;;;;;5029524;28;20106;-87
2023/10/28 13:39:07;;;;;;;3.83;2.00;;;;;;;;;;5029676;28;20471;-87
2023/10/28 13:41:32;;;;;;;3.97;2.00;;;;;;;;;;5012445;28;20033;-88
2023/10/28 13:44:00;;;;;;;7.00;2.13;;;;;;;;;;5029523;28;20128;-86
2023/10/28 13:46:25;;;;;;;3.35;2.08;;;;;;;;;;5032546;28;20053;-86
2023/10/28 13:48:50;;;;;;;5.00;1.83;;;;;;;;;;5034097;28;20074;-88
2023/10/28 13:51:16;;;;;;;6.78;2.22;;;;;;;;;;5029272;28;20025;-87
2023/10/28 13:53:41;;;;;;;5.03;2.00;;;;;;;;;;5033784;28;20835;-87
2023/10/28 13:56:10;;;;;;;5.18;2.35;;;;;;;;;;5029448;28;20021;-89
2023/10/28 13:58:35;;;;;;;6.32;2.53;;;;;;;;;;5014451;28;20099;-86
2023/10/28 14:01:04;;;;;;;4.93;2.53;;;;;;;;;;5031582;28;20415;-88
2023/10/28 14:03:30;;;;;;;4.55;2.40;;;;;;;;;;5012552;28;20026;-87
2023/10/28 14:05:55;;;;;;;5.13;3.00;;;;;;;;;;5000381;28;20040;-87
2023/10/28 14:08:21;;;;;;;6.57;3.60;;;;;;;;;;5028880;28;20489;-87
2023/10/28 14:10:46;;;;;;;5.70;2.65;;;;;;;;;;5011062;28;20030;-87
2023/10/28 14:13:12;;;;;;;6.15;2.22;;;;;;;;;;5011228;28;20108;-87
2023/10/28 14:15:42;;;;;;;5.10;1.88;;;;;;;;;;5028640;28;20083;-88
2023/10/28 14:18:08;;;;;;;4.05;1.58;;;;;;;;;;5011276;28;20487;-88
2023/10/28 14:20:33;;;;;;;4.18;1.20;;;;;;;;;;5029124;28;20036;-88
2023/10/28 14:22:59;;;;;;;4.00;1.20;;;;;;;;;;5011349;28;20307;-88
2023/10/28 14:25:24;;;;;;;4.13;1.20;;;;;;;;;;5018922;28;20395;-88
2023/10/28 14:27:50;;;;;;;3.88;1.52;;;;;;;;;;5027217;28;20025;-90
2023/10/28 14:30:15;;;;;;;3.03;1.48;;;;;;;;;;5026443;28;20021;-88
2023/10/28 14:32:40;;;;;;;4.35;1.73;;;;;;;;;;5029015;28;20478;-88
2023/10/28 14:35:07;;;;;;;3.28;1.50;;;;;;;;;;5027049;28;20079;-87
2023/10/28 14:37:32;;;;;;;4.10;1.42;;;;;;;;;;5010777;28;20076;-88
2023/10/28 14:39:59;;;;;;;3.03;1.40;;;;;;;;;;5028558;28;20115;-88
2023/10/28 14:42:24;;;;;;;2.53;1.20;;;;;;;;;;5027593;28;20033;-88
2023/10/28 14:44:51;;;;;;;4.95;1.40;;;;;;;;;;5027306;28;20121;-88